sensor_id;sensor_type;location;lat;lon;timestamp;pressure;altitude;pressure_sealevel;temperature
20490;BMP280;10403;54.092;12.122;2022-07-23T00:00:29;101876.84;;;20.19
20490;BMP280;10403;54.092;12.122;2022-07-23T00:03:05;101876.84;;;20.19
20490;BMP280;10403;54.092;12.122;2022-07-23T00:05:33;101872.53;;;20.17
20490;BMP280;10403;54.092;12.122;2022-07-23T00:08:01;101874.22;;;20.18
20490;BMP280;10403;54.092;12.122;2022-07-23T00:10:28;101873.41;;;20.17
20490;BMP280;10403;54.092;12.122;2022-07-23T00:12:55;101870.84;;;20.14
20490;BMP280;10403;54.092;12.122;2022-07-23T00:15:22;101869.91;;;20.15
20490;BMP280;10403;54.092;12.122;2022-07-23T00:17:50;101869.97;;;20.14
20490;BMP280;10403;54.092;12.122;2022-07-23T00:20:18;101855.81;;;20.13
20490;BMP280;10403;54.092;12.122;2022-07-23T00:22:53;101844.31;;;20.13
20490;BMP280;10403;54.092;12.122;2022-07-23T00:25:23;101848.75;;;20.12
20490;BMP280;10403;54.092;12.122;2022-07-23T00:27:55;101845.28;;;20.10
20490;BMP280;10403;54.092;12.122;2022-07-23T00:30:24;101830.22;;;20.11
20490;BMP280;10403;54.092;12.122;2022-07-23T00:32:58;101842.59;;;20.12
20490;BMP280;10403;54.092;12.122;2022-07-23T00:35:31;101850.50;;;20.13
20490;BMP280;10403;54.092;12.122;2022-07-23T00:38:00;101841.72;;;20.11
20490;BMP280;10403;54.092;12.122;2022-07-23T00:40:31;101824.16;;;20.07
20490;BMP280;10403;54.092;12.122;2022-07-23T00:43:00;101824.97;;;20.09
20490;BMP280;10403;54.092;12.122;2022-07-23T00:45:30;101836.25;;;20.16
20490;BMP280;10403;54.092;12.122;2022-07-23T00:47:59;101847.78;;;20.15
20490;BMP280;10403;54.092;12.122;2022-07-23T00:50:28;101834.56;;;20.13
20490;BMP280;10403;54.092;12.122;2022-07-23T00:52:56;101823.88;;;20.15
20490;BMP280;10403;54.092;12.122;2022-07-23T00:55:25;101824.81;;;20.14
20490;BMP280;10403;54.092;12.122;2022-07-23T00:57:53;101829.25;;;20.13
20490;BMP280;10403;54.092;12.122;2022-07-23T01:00:23;101833.69;;;20.13
20490;BMP280;10403;54.092;12.122;2022-07-23T01:02:52;101838.84;;;20.17
20490;BMP280;10403;54.092;12.122;2022-07-23T01:05:20;101836.19;;;20.17
20490;BMP280;10403;54.092;12.122;2022-07-23T01:07:51;101834.47;;;20.16
20490;BMP280;10403;54.092;12.122;2022-07-23T01:10:24;101823.06;;;20.13
20490;BMP280;10403;54.092;12.122;2022-07-23T01:13:09;101824.84;;;20.12
20490;BMP280;10403;54.092;12.122;2022-07-23T01:15:38;101824.91;;;20.11
20490;BMP280;10403;54.092;12.122;2022-07-23T01:18:08;101823.97;;;20.12
20490;BMP280;10403;54.092;12.122;2022-07-23T01:20:35;101821.28;;;20.13
20490;BMP280;10403;54.092;12.122;2022-07-23T01:23:03;101816.88;;;20.12
20490;BMP280;10403;54.092;12.122;2022-07-23T01:25:30;101824.75;;;20.15
20490;BMP280;10403;54.092;12.122;2022-07-23T01:27:58;101822.09;;;20.15
20490;BMP280;10403;54.092;12.122;2022-07-23T01:30:25;101829.25;;;20.13
20490;BMP280;10403;54.092;12.122;2022-07-23T01:32:53;101825.78;;;20.11
20490;BMP280;10403;54.092;12.122;2022-07-23T01:35:20;101807.41;;;20.05
20490;BMP280;10403;54.092;12.122;2022-07-23T01:37:47;101820.56;;;20.08
20490;BMP280;10403;54.092;12.122;2022-07-23T01:40:14;101817.13;;;20.06
20490;BMP280;10403;54.092;12.122;2022-07-23T01:42:41;101819.81;;;20.05
20490;BMP280;10403;54.092;12.122;2022-07-23T01:45:09;101815.47;;;20.02
20490;BMP280;10403;54.092;12.122;2022-07-23T01:47:36;101816.41;;;20.01
20490;BMP280;10403;54.092;12.122;2022-07-23T01:50:04;101813.84;;;19.98
20490;BMP280;10403;54.092;12.122;2022-07-23T01:52:31;101827.13;;;19.98
20490;BMP280;10403;54.092;12.122;2022-07-23T01:54:58;101829.91;;;19.95
20490;BMP280;10403;54.092;12.122;2022-07-23T01:57:25;101817.66;;;19.91
20490;BMP280;10403;54.092;12.122;2022-07-23T01:59:52;101823.09;;;19.88
20490;BMP280;10403;54.092;12.122;2022-07-23T02:02:19;101827.59;;;19.86
20490;BMP280;10403;54.092;12.122;2022-07-23T02:04:46;101821.41;;;19.85
20490;BMP280;10403;54.092;12.122;2022-07-23T02:07:13;101832.06;;;19.84
20490;BMP280;10403;54.092;12.122;2022-07-23T02:09:40;101823.28;;;19.82
20490;BMP280;10403;54.092;12.122;2022-07-23T02:12:07;101820.53;;;19.85
20490;BMP280;10403;54.092;12.122;2022-07-23T02:14:34;101818.91;;;19.81
20490;BMP280;10403;54.092;12.122;2022-07-23T02:17:05;101819.81;;;19.80
20490;BMP280;10403;54.092;12.122;2022-07-23T02:19:32;101814.63;;;19.77
20490;BMP280;10403;54.092;12.122;2022-07-23T02:21:59;101826.91;;;19.79
20490;BMP280;10403;54.092;12.122;2022-07-23T02:24:26;101818.16;;;19.77
20490;BMP280;10403;54.092;12.122;2022-07-23T02:26:53;101814.56;;;19.78
20490;BMP280;10403;54.092;12.122;2022-07-23T02:29:20;101813.72;;;19.78
20490;BMP280;10403;54.092;12.122;2022-07-23T02:31:47;101809.31;;;19.77
20490;BMP280;10403;54.092;12.122;2022-07-23T02:34:14;101810.28;;;19.74
20490;BMP280;10403;54.092;12.122;2022-07-23T02:36:41;101804.13;;;19.74
20490;BMP280;10403;54.092;12.122;2022-07-23T02:39:08;101808.59;;;19.72
20490;BMP280;10403;54.092;12.122;2022-07-23T02:41:35;101803.41;;;19.69
20490;BMP280;10403;54.092;12.122;2022-07-23T02:44:02;101802.69;;;19.64
20490;BMP280;10403;54.092;12.122;2022-07-23T02:46:29;101817.53;;;19.69
20490;BMP280;10403;54.092;12.122;2022-07-23T02:48:56;101810.44;;;19.70
20490;BMP280;10403;54.092;12.122;2022-07-23T02:51:24;101810.53;;;19.68
20490;BMP280;10403;54.092;12.122;2022-07-23T02:53:51;101809.66;;;19.68
20490;BMP280;10403;54.092;12.122;2022-07-23T02:56:18;101813.28;;;19.65
20490;BMP280;10403;54.092;12.122;2022-07-23T02:58:45;101813.22;;;19.67
20490;BMP280;10403;54.092;12.122;2022-07-23T03:01:12;101814.16;;;19.66
20490;BMP280;10403;54.092;12.122;2022-07-23T03:03:39;101804.50;;;19.63
20490;BMP280;10403;54.092;12.122;2022-07-23T03:06:07;101809.75;;;19.65
20490;BMP280;10403;54.092;12.122;2022-07-23T03:08:34;101808.84;;;19.66
20490;BMP280;10403;54.092;12.122;2022-07-23T03:11:01;101806.19;;;19.66
20490;BMP280;10403;54.092;12.122;2022-07-23T03:13:28;101806.19;;;19.66
20490;BMP280;10403;54.092;12.122;2022-07-23T03:15:57;101809.66;;;19.68
20490;BMP280;10403;54.092;12.122;2022-07-23T03:18:24;101802.59;;;19.67
20490;BMP280;10403;54.092;12.122;2022-07-23T03:20:51;101806.06;;;19.69
20490;BMP280;10403;54.092;12.122;2022-07-23T03:23:18;101812.22;;;19.69
20490;BMP280;10403;54.092;12.122;2022-07-23T03:25:45;101807.88;;;19.68
20490;BMP280;10403;54.092;12.122;2022-07-23T03:28:19;101815.84;;;19.68
20490;BMP280;10403;54.092;12.122;2022-07-23T03:30:47;101806.19;;;19.66
20490;BMP280;10403;54.092;12.122;2022-07-23T03:33:20;101803.56;;;19.64
20490;BMP280;10403;54.092;12.122;2022-07-23T03:35:48;101802.75;;;19.62
20490;BMP280;10403;54.092;12.122;2022-07-23T03:38:17;101804.53;;;19.62
20490;BMP280;10403;54.092;12.122;2022-07-23T03:40:45;101792.19;;;19.61
20490;BMP280;10403;54.092;12.122;2022-07-23T03:43:12;101786.13;;;19.57
20490;BMP280;10403;54.092;12.122;2022-07-23T03:45:39;101788.84;;;19.55
20490;BMP280;10403;54.092;12.122;2022-07-23T03:48:06;101780.81;;;19.57
20490;BMP280;10403;54.092;12.122;2022-07-23T03:50:34;101777.34;;;19.55
20490;BMP280;10403;54.092;12.122;2022-07-23T03:53:01;101781.56;;;19.61
20490;BMP280;10403;54.092;12.122;2022-07-23T03:55:28;101786.00;;;19.60
20490;BMP280;10403;54.092;12.122;2022-07-23T03:57:55;101786.78;;;19.64
20490;BMP280;10403;54.092;12.122;2022-07-23T04:00:22;101797.41;;;19.64
20490;BMP280;10403;54.092;12.122;2022-07-23T04:02:49;101799.19;;;19.63
20490;BMP280;10403;54.092;12.122;2022-07-23T04:05:17;101806.22;;;19.64
20490;BMP280;10403;54.092;12.122;2022-07-23T04:07:44;101800.97;;;19.63
20490;BMP280;10403;54.092;12.122;2022-07-23T04:10:11;101803.66;;;19.61
20490;BMP280;10403;54.092;12.122;2022-07-23T04:12:38;101804.53;;;19.62
20490;BMP280;10403;54.092;12.122;2022-07-23T04:15:08;101820.41;;;19.63
20490;BMP280;10403;54.092;12.122;2022-07-23T04:17:35;101809.84;;;19.62
20490;BMP280;10403;54.092;12.122;2022-07-23T04:20:03;101812.50;;;19.62
20490;BMP280;10403;54.092;12.122;2022-07-23T04:22:30;101804.53;;;19.62
20490;BMP280;10403;54.092;12.122;2022-07-23T04:24:58;101808.09;;;19.61
20490;BMP280;10403;54.092;12.122;2022-07-23T04:27:25;101801.94;;;19.60
20490;BMP280;10403;54.092;12.122;2022-07-23T04:29:52;101807.31;;;19.58
20490;BMP280;10403;54.092;12.122;2022-07-23T04:32:19;101816.03;;;19.62
20490;BMP280;10403;54.092;12.122;2022-07-23T04:34:46;101809.84;;;19.62
20490;BMP280;10403;54.092;12.122;2022-07-23T04:37:13;101808.97;;;19.61
20490;BMP280;10403;54.092;12.122;2022-07-23T04:39:40;101822.31;;;19.59
20490;BMP280;10403;54.092;12.122;2022-07-23T04:42:07;101811.81;;;19.56
20490;BMP280;10403;54.092;12.122;2022-07-23T04:44:34;101816.19;;;19.57
20490;BMP280;10403;54.092;12.122;2022-07-23T04:47:01;101819.81;;;19.55
20490;BMP280;10403;54.092;12.122;2022-07-23T04:49:28;101815.47;;;19.52
20490;BMP280;10403;54.092;12.122;2022-07-23T04:51:55;101825.22;;;19.52
20490;BMP280;10403;54.092;12.122;2022-07-23T04:54:22;101822.63;;;19.50
20490;BMP280;10403;54.092;12.122;2022-07-23T04:56:52;101818.13;;;19.52
20490;BMP280;10403;54.092;12.122;2022-07-23T04:59:19;101808.34;;;19.54
20490;BMP280;10403;54.092;12.122;2022-07-23T05:01:46;101809.19;;;19.55
20490;BMP280;10403;54.092;12.122;2022-07-23T05:04:13;101811.69;;;19.59
20490;BMP280;10403;54.092;12.122;2022-07-23T05:06:40;101806.28;;;19.63
20490;BMP280;10403;54.092;12.122;2022-07-23T05:09:07;101811.50;;;19.66
20490;BMP280;10403;54.092;12.122;2022-07-23T05:11:34;101802.59;;;19.67
20490;BMP280;10403;54.092;12.122;2022-07-23T05:14:01;101797.13;;;19.71
20490;BMP280;10403;54.092;12.122;2022-07-23T05:16:28;101804.13;;;19.74
20490;BMP280;10403;54.092;12.122;2022-07-23T05:18:55;101796.09;;;19.75
20490;BMP280;10403;54.092;12.122;2022-07-23T05:21:22;101793.53;;;19.72
20490;BMP280;10403;54.092;12.122;2022-07-23T05:23:49;101797.88;;;19.75
20490;BMP280;10403;54.092;12.122;2022-07-23T05:26:16;101800.53;;;19.75
20490;BMP280;10403;54.092;12.122;2022-07-23T05:28:43;101796.97;;;19.76
20490;BMP280;10403;54.092;12.122;2022-07-23T05:31:16;101793.44;;;19.75
20490;BMP280;10403;54.092;12.122;2022-07-23T05:33:43;101796.91;;;19.77
20490;BMP280;10403;54.092;12.122;2022-07-23T05:36:10;101797.03;;;19.74
20490;BMP280;10403;54.092;12.122;2022-07-23T05:38:37;101810.13;;;19.79
20490;BMP280;10403;54.092;12.122;2022-07-23T05:41:04;101812.84;;;19.77
20490;BMP280;10403;54.092;12.122;2022-07-23T05:43:32;101811.16;;;19.75
20490;BMP280;10403;54.092;12.122;2022-07-23T05:45:59;101812.03;;;19.75
20490;BMP280;10403;54.092;12.122;2022-07-23T05:48:26;101812.78;;;19.79
20490;BMP280;10403;54.092;12.122;2022-07-23T05:50:53;101816.25;;;19.81
20490;BMP280;10403;54.092;12.122;2022-07-23T05:53:20;101821.34;;;19.87
20490;BMP280;10403;54.092;12.122;2022-07-23T05:55:47;101815.00;;;19.91
20490;BMP280;10403;54.092;12.122;2022-07-23T05:58:14;101820.16;;;19.95
20490;BMP280;10403;54.092;12.122;2022-07-23T06:00:41;101814.72;;;19.99
20490;BMP280;10403;54.092;12.122;2022-07-23T06:03:08;101814.50;;;20.05
20490;BMP280;10403;54.092;12.122;2022-07-23T06:05:35;101811.63;;;20.11
20490;BMP280;10403;54.092;12.122;2022-07-23T06:08:03;101811.50;;;20.14
20490;BMP280;10403;54.092;12.122;2022-07-23T06:10:30;101805.22;;;20.16
20490;BMP280;10403;54.092;12.122;2022-07-23T06:12:57;101796.25;;;20.19
20490;BMP280;10403;54.092;12.122;2022-07-23T06:15:29;101785.56;;;20.20
20490;BMP280;10403;54.092;12.122;2022-07-23T06:17:57;101798.88;;;20.20
20490;BMP280;10403;54.092;12.122;2022-07-23T06:20:24;101800.69;;;20.18
20490;BMP280;10403;54.092;12.122;2022-07-23T06:22:51;101805.28;;;20.15
20490;BMP280;10403;54.092;12.122;2022-07-23T06:25:18;101804.41;;;20.14
20490;BMP280;10403;54.092;12.122;2022-07-23T06:27:47;101801.84;;;20.11
20490;BMP280;10403;54.092;12.122;2022-07-23T06:30:14;101795.72;;;20.09
20490;BMP280;10403;54.092;12.122;2022-07-23T06:32:48;101793.94;;;20.10
20490;BMP280;10403;54.092;12.122;2022-07-23T06:35:16;101793.03;;;20.11
20490;BMP280;10403;54.092;12.122;2022-07-23T06:37:44;101807.06;;;20.14
20490;BMP280;10403;54.092;12.122;2022-07-23T06:40:14;101812.44;;;20.13
20490;BMP280;10403;54.092;12.122;2022-07-23T06:42:41;101822.19;;;20.12
20490;BMP280;10403;54.092;12.122;2022-07-23T06:45:09;101808.97;;;20.11
20490;BMP280;10403;54.092;12.122;2022-07-23T06:47:36;101813.31;;;20.13
20490;BMP280;10403;54.092;12.122;2022-07-23T06:50:04;101810.81;;;20.09
20490;BMP280;10403;54.092;12.122;2022-07-23T06:52:32;101814.38;;;20.08
20490;BMP280;10403;54.092;12.122;2022-07-23T06:54:59;101811.91;;;20.03
20490;BMP280;10403;54.092;12.122;2022-07-23T06:57:26;101816.19;;;20.07
20490;BMP280;10403;54.092;12.122;2022-07-23T06:59:53;101810.81;;;20.09
20490;BMP280;10403;54.092;12.122;2022-07-23T07:02:22;101807.41;;;20.05
20490;BMP280;10403;54.092;12.122;2022-07-23T07:04:49;101803.13;;;20.01
20490;BMP280;10403;54.092;12.122;2022-07-23T07:07:16;101819.09;;;20.00
20490;BMP280;10403;54.092;12.122;2022-07-23T07:09:43;101803.41;;;19.93
20490;BMP280;10403;54.092;12.122;2022-07-23T07:12:14;101807.81;;;19.94
20490;BMP280;10403;54.092;12.122;2022-07-23T07:14:41;101806.97;;;19.92
20490;BMP280;10403;54.092;12.122;2022-07-23T07:17:08;101807.91;;;19.91
20490;BMP280;10403;54.092;12.122;2022-07-23T07:19:37;101795.44;;;19.93
20490;BMP280;10403;54.092;12.122;2022-07-23T07:22:04;101795.34;;;19.97
20490;BMP280;10403;54.092;12.122;2022-07-23T07:24:31;101803.13;;;20.01
20490;BMP280;10403;54.092;12.122;2022-07-23T07:27:04;101802.03;;;20.07
20490;BMP280;10403;54.092;12.122;2022-07-23T07:29:31;101796.53;;;20.11
20490;BMP280;10403;54.092;12.122;2022-07-23T07:31:58;101798.03;;;20.18
20490;BMP280;10403;54.092;12.122;2022-07-23T07:34:25;101797.66;;;20.29
20490;BMP280;10403;54.092;12.122;2022-07-23T07:36:53;101805.25;;;20.40
20490;BMP280;10403;54.092;12.122;2022-07-23T07:39:20;101803.91;;;20.51
20490;BMP280;10403;54.092;12.122;2022-07-23T07:41:47;101800.03;;;20.60
20490;BMP280;10403;54.092;12.122;2022-07-23T07:44:14;101796.03;;;20.72
20490;BMP280;10403;54.092;12.122;2022-07-23T07:46:41;101795.91;;;20.96
20490;BMP280;10403;54.092;12.122;2022-07-23T07:49:08;101787.06;;;21.18
20490;BMP280;10403;54.092;12.122;2022-07-23T07:51:42;101791.03;;;21.29
20490;BMP280;10403;54.092;12.122;2022-07-23T07:54:12;101792.69;;;21.32
20490;BMP280;10403;54.092;12.122;2022-07-23T07:56:39;101789.63;;;21.21
20490;BMP280;10403;54.092;12.122;2022-07-23T07:59:07;101799.53;;;21.16
20490;BMP280;10403;54.092;12.122;2022-07-23T08:01:36;101801.81;;;21.04
20490;BMP280;10403;54.092;12.122;2022-07-23T08:04:04;101806.53;;;20.96
20490;BMP280;10403;54.092;12.122;2022-07-23T08:06:32;101813.97;;;20.88
20490;BMP280;10403;54.092;12.122;2022-07-23T08:08:59;101812.44;;;20.83
20490;BMP280;10403;54.092;12.122;2022-07-23T08:11:26;101816.88;;;20.82
20490;BMP280;10403;54.092;12.122;2022-07-23T08:13:53;101812.44;;;20.83
20490;BMP280;10403;54.092;12.122;2022-07-23T08:16:20;101816.56;;;20.90
20490;BMP280;10403;54.092;12.122;2022-07-23T08:18:47;101823.63;;;20.91
20490;BMP280;10403;54.092;12.122;2022-07-23T08:21:14;101828.19;;;20.87
20490;BMP280;10403;54.092;12.122;2022-07-23T08:23:41;101829.22;;;20.85
20490;BMP280;10403;54.092;12.122;2022-07-23T08:26:08;101822.88;;;20.87
20490;BMP280;10403;54.092;12.122;2022-07-23T08:28:35;101830.84;;;20.87
20490;BMP280;10403;54.092;12.122;2022-07-23T08:31:03;101836.31;;;20.84
20490;BMP280;10403;54.092;12.122;2022-07-23T08:33:32;101838.28;;;20.79
20490;BMP280;10403;54.092;12.122;2022-07-23T08:36:20;101835.00;;;20.73
20490;BMP280;10403;54.092;12.122;2022-07-23T08:38:47;101842.09;;;20.72
20490;BMP280;10403;54.092;12.122;2022-07-23T08:41:15;101837.59;;;20.74
20490;BMP280;10403;54.092;12.122;2022-07-23T08:43:44;101840.81;;;20.82
20490;BMP280;10403;54.092;12.122;2022-07-23T08:46:13;101829.06;;;20.88
20490;BMP280;10403;54.092;12.122;2022-07-23T08:48:40;101835.75;;;20.98
20490;BMP280;10403;54.092;12.122;2022-07-23T08:51:08;101829.19;;;21.06
20490;BMP280;10403;54.092;12.122;2022-07-23T08:53:37;101838.53;;;21.17
20490;BMP280;10403;54.092;12.122;2022-07-23T08:56:06;101832.19;;;21.21
20490;BMP280;10403;54.092;12.122;2022-07-23T08:58:36;101833.06;;;21.21
20490;BMP280;10403;54.092;12.122;2022-07-23T09:01:03;101834.06;;;21.19
20490;BMP280;10403;54.092;12.122;2022-07-23T09:03:35;101830.47;;;21.20
20490;BMP280;10403;54.092;12.122;2022-07-23T09:06:02;101824.88;;;21.26
20490;BMP280;10403;54.092;12.122;2022-07-23T09:08:39;101825.47;;;21.34
20490;BMP280;10403;54.092;12.122;2022-07-23T09:11:09;101816.81;;;21.49
20490;BMP280;10403;54.092;12.122;2022-07-23T09:16:20;101827.97;;;21.99
20490;BMP280;10403;54.092;12.122;2022-07-23T09:18:54;101826.75;;;22.06
20490;BMP280;10403;54.092;12.122;2022-07-23T09:26:42;101811.28;;;22.33
20490;BMP280;10403;54.092;12.122;2022-07-23T09:29:21;101800.78;;;22.30
20490;BMP280;10403;54.092;12.122;2022-07-23T09:31:55;101808.78;;;22.30
20490;BMP280;10403;54.092;12.122;2022-07-23T09:36:58;101811.88;;;22.21
20490;BMP280;10403;54.092;12.122;2022-07-23T09:39:35;101814.38;;;22.24
20490;BMP280;10403;54.092;12.122;2022-07-23T09:42:21;101814.75;;;22.35
20490;BMP280;10403;54.092;12.122;2022-07-23T09:44:51;101815.25;;;22.43
20490;BMP280;10403;54.092;12.122;2022-07-23T09:47:23;101815.94;;;22.48
20490;BMP280;10403;54.092;12.122;2022-07-23T09:50:10;101822.94;;;22.51
20490;BMP280;10403;54.092;12.122;2022-07-23T09:52:48;101831.81;;;22.51
20490;BMP280;10403;54.092;12.122;2022-07-23T09:55:19;101826.09;;;22.40
20490;BMP280;10403;54.092;12.122;2022-07-23T09:57:46;101826.91;;;22.42
20490;BMP280;10403;54.092;12.122;2022-07-23T10:00:23;101822.34;;;22.44
20490;BMP280;10403;54.092;12.122;2022-07-23T10:02:52;101820.47;;;22.46
20490;BMP280;10403;54.092;12.122;2022-07-23T10:05:20;101821.41;;;22.45
20490;BMP280;10403;54.092;12.122;2022-07-23T10:07:50;101828.59;;;22.43
20490;BMP280;10403;54.092;12.122;2022-07-23T10:10:22;101837.63;;;22.41
20490;BMP280;10403;54.092;12.122;2022-07-23T10:12:50;101835.28;;;22.33
20490;BMP280;10403;54.092;12.122;2022-07-23T10:15:18;101839.97;;;22.28
20490;BMP280;10403;54.092;12.122;2022-07-23T10:17:45;101827.53;;;22.29
20490;BMP280;10403;54.092;12.122;2022-07-23T10:20:12;101845.31;;;22.28
20490;BMP280;10403;54.092;12.122;2022-07-23T10:26:49;101837.66;;;22.21
20490;BMP280;10403;54.092;12.122;2022-07-23T10:29:52;101843.81;;;22.23
20490;BMP280;10403;54.092;12.122;2022-07-23T10:35:37;101854.38;;;22.24
20490;BMP280;10403;54.092;12.122;2022-07-23T10:41:08;101842.66;;;22.28
20490;BMP280;10403;54.092;12.122;2022-07-23T10:43:35;101837.97;;;22.33
20490;BMP280;10403;54.092;12.122;2022-07-23T10:46:23;101845.63;;;22.41
20490;BMP280;10403;54.092;12.122;2022-07-23T10:49:24;101846.34;;;22.44
20490;BMP280;10403;54.092;12.122;2022-07-23T10:54:48;101839.44;;;22.40
20490;BMP280;10403;54.092;12.122;2022-07-23T10:57:23;101846.25;;;22.46
20490;BMP280;10403;54.092;12.122;2022-07-23T11:02:41;101847.63;;;22.55
20490;BMP280;10403;54.092;12.122;2022-07-23T11:05:12;101846.84;;;22.52
20490;BMP280;10403;54.092;12.122;2022-07-23T11:10:37;101849.50;;;22.52
20490;BMP280;10403;54.092;12.122;2022-07-23T11:18:57;101855.22;;;22.64
20490;BMP280;10403;54.092;12.122;2022-07-23T11:24:08;101860.91;;;22.56
20490;BMP280;10403;54.092;12.122;2022-07-23T11:34:41;101850.91;;;22.61
20490;BMP280;10403;54.092;12.122;2022-07-23T11:37:33;101848.13;;;22.63
20490;BMP280;10403;54.092;12.122;2022-07-23T11:40:07;101851.69;;;22.63
20490;BMP280;10403;54.092;12.122;2022-07-23T11:42:38;101856.75;;;22.69
20490;BMP280;10403;54.092;12.122;2022-07-23T11:45:08;101842.94;;;22.80
20490;BMP280;10403;54.092;12.122;2022-07-23T11:47:36;101855.16;;;22.84
20490;BMP280;10403;54.092;12.122;2022-07-23T11:50:05;101852.09;;;22.73
20490;BMP280;10403;54.092;12.122;2022-07-23T11:52:34;101858.53;;;22.69
20490;BMP280;10403;54.092;12.122;2022-07-23T11:55:06;101852.28;;;22.70
20490;BMP280;10403;54.092;12.122;2022-07-23T11:57:40;101850.53;;;22.69
20490;BMP280;10403;54.092;12.122;2022-07-23T12:00:21;101859.47;;;22.68
20490;BMP280;10403;54.092;12.122;2022-07-23T12:02:53;101856.75;;;22.69
20490;BMP280;10403;54.092;12.122;2022-07-23T12:05:39;101839.19;;;22.64
20490;BMP280;10403;54.092;12.122;2022-07-23T12:08:09;101849.19;;;22.60
20490;BMP280;10403;54.092;12.122;2022-07-23T12:10:43;101847.06;;;22.67
20490;BMP280;10403;54.092;12.122;2022-07-23T12:13:17;101852.28;;;22.70
20490;BMP280;10403;54.092;12.122;2022-07-23T12:15:51;101862.69;;;22.76
20490;BMP280;10403;54.092;12.122;2022-07-23T12:18:23;101862.78;;;22.73
20490;BMP280;10403;54.092;12.122;2022-07-23T12:20:54;101858.81;;;22.63
20490;BMP280;10403;54.092;12.122;2022-07-23T12:23:24;101862.28;;;22.65
20490;BMP280;10403;54.092;12.122;2022-07-23T12:25:53;101853.06;;;22.72
20490;BMP280;10403;54.092;12.122;2022-07-23T12:28:32;101845.09;;;22.91
20490;BMP280;10403;54.092;12.122;2022-07-23T12:31:00;101849.81;;;23.03
20490;BMP280;10403;54.092;12.122;2022-07-23T12:33:34;101854.00;;;23.08
20490;BMP280;10403;54.092;12.122;2022-07-23T12:36:08;101851.34;;;23.08
20490;BMP280;10403;54.092;12.122;2022-07-23T12:38:49;101846.00;;;23.08
20490;BMP280;10403;54.092;12.122;2022-07-23T12:41:16;101848.59;;;23.10
20490;BMP280;10403;54.092;12.122;2022-07-23T12:43:45;101844.75;;;23.15
20490;BMP280;10403;54.092;12.122;2022-07-23T12:46:21;101855.56;;;23.12
20490;BMP280;10403;54.092;12.122;2022-07-23T12:51:30;101853.22;;;23.06
20490;BMP280;10403;54.092;12.122;2022-07-23T12:54:05;101860.66;;;23.00
20490;BMP280;10403;54.092;12.122;2022-07-23T12:56:36;101877.38;;;22.84
20490;BMP280;10403;54.092;12.122;2022-07-23T12:59:05;101880.25;;;22.61
20490;BMP280;10403;54.092;12.122;2022-07-23T13:01:37;101875.66;;;22.44
20490;BMP280;10403;54.092;12.122;2022-07-23T13:04:13;101890.97;;;22.41
20490;BMP280;10403;54.092;12.122;2022-07-23T13:06:51;101875.66;;;22.44
20490;BMP280;10403;54.092;12.122;2022-07-23T13:09:23;101885.34;;;22.47
20490;BMP280;10403;54.092;12.122;2022-07-23T13:11:53;101885.94;;;22.33
20490;BMP280;10403;54.092;12.122;2022-07-23T13:14:24;101873.47;;;22.34
20490;BMP280;10403;54.092;12.122;2022-07-23T13:17:12;101873.16;;;22.41
20490;BMP280;10403;54.092;12.122;2022-07-23T13:19:39;101885.56;;;22.42
20490;BMP280;10403;54.092;12.122;2022-07-23T13:22:07;101899.72;;;22.43
20490;BMP280;10403;54.092;12.122;2022-07-23T13:24:36;101905.06;;;22.43
20490;BMP280;10403;54.092;12.122;2022-07-23T13:27:05;101903.69;;;22.34
20490;BMP280;10403;54.092;12.122;2022-07-23T13:29:37;101897.19;;;22.21
20490;BMP280;10403;54.092;12.122;2022-07-23T13:32:04;101906.53;;;22.11
20490;BMP280;10403;54.092;12.122;2022-07-23T13:34:39;101906.38;;;22.14
20490;BMP280;10403;54.092;12.122;2022-07-23T13:37:08;101904.72;;;22.11
20490;BMP280;10403;54.092;12.122;2022-07-23T13:39:35;101909.72;;;21.99
20490;BMP280;10403;54.092;12.122;2022-07-23T13:42:05;101910.72;;;21.95
20490;BMP280;10403;54.092;12.122;2022-07-23T13:44:34;101912.63;;;21.93
20490;BMP280;10403;54.092;12.122;2022-07-23T13:47:03;101911.94;;;21.88
20490;BMP280;10403;54.092;12.122;2022-07-23T13:49:50;101905.56;;;21.92
20490;BMP280;10403;54.092;12.122;2022-07-23T13:52:17;101912.25;;;22.02
20490;BMP280;10403;54.092;12.122;2022-07-23T13:54:45;101910.50;;;22.21
20490;BMP280;10403;54.092;12.122;2022-07-23T13:57:12;101905.41;;;22.35
20490;BMP280;10403;54.092;12.122;2022-07-23T13:59:39;101911.81;;;22.51
20490;BMP280;10403;54.092;12.122;2022-07-23T14:02:07;101916.00;;;22.57
20490;BMP280;10403;54.092;12.122;2022-07-23T14:04:54;101917.28;;;22.48
20490;BMP280;10403;54.092;12.122;2022-07-23T14:07:21;101915.53;;;22.47
20490;BMP280;10403;54.092;12.122;2022-07-23T14:09:48;101906.16;;;22.39
20490;BMP280;10403;54.092;12.122;2022-07-23T14:12:15;101904.91;;;22.27
20490;BMP280;10403;54.092;12.122;2022-07-23T14:14:43;101907.56;;;22.27
20490;BMP280;10403;54.092;12.122;2022-07-23T14:17:10;101907.97;;;22.38
20490;BMP280;10403;54.092;12.122;2022-07-23T14:19:38;101910.34;;;22.44
20490;BMP280;10403;54.092;12.122;2022-07-23T14:22:05;101917.41;;;22.45
20490;BMP280;10403;54.092;12.122;2022-07-23T14:24:33;101927.00;;;22.49
20490;BMP280;10403;54.092;12.122;2022-07-23T14:27:03;101921.00;;;22.44
20490;BMP280;10403;54.092;12.122;2022-07-23T14:29:32;101915.81;;;22.41
20490;BMP280;10403;54.092;12.122;2022-07-23T14:32:02;101918.75;;;22.35
20490;BMP280;10403;54.092;12.122;2022-07-23T14:34:30;101907.91;;;22.40
20490;BMP280;10403;54.092;12.122;2022-07-23T14:36:58;101917.91;;;22.53
20490;BMP280;10403;54.092;12.122;2022-07-23T14:39:27;101924.06;;;22.56
20490;BMP280;10403;54.092;12.122;2022-07-23T14:41:54;101919.00;;;22.49
20490;BMP280;10403;54.092;12.122;2022-07-23T14:44:21;101925.69;;;22.39